CZSTPAJN

Guest
Details From CZST - STEWART
To PAJN - Juneau Intl
Flight Number -
Tags generated
Created
Modified
Stats Distance 223 nm / 413 km
Max Altitude 24,800 ft / 7,559 m
Waypoints 4
Social Downloads 0
Likes 0
Share VATSIM

Download

Looking for another format? Having issues loading an existing format? Contact us
Advertisement - Login to hide

Notes

Basic altitude profile: - Ascent Rate: 2500ft/min - Ascent Speed: 250kts - Cruise Altitude: 28000ft - Cruise Speed: 300kts - Descent Rate: 1500ft/min - Descent Speed: 250kts Options: - Use NATs: yes - Use PACOTS: yes - Use low airways: yes - Use high airways: yes

Route

CZST FPN T266 CGL PAJN

ID Type Via Altitude Latitude Longitude Leg Dist Tot Dist Heading (true) Name
O CZST APT - 0 ft / 0 m 55.93542˚ -129.98403˚ - 0 nm - STEWART
FPN NDB - 24,800 ft / 7,559 m 56.79225˚ -132.82097˚ 107 nm 107 nm 300° / 297° FREDERICKS POINT NDB
CGL NDB T266 (AWY-LO) 7,000 ft / 2,134 m 58.35933˚ -134.69944˚ 111 nm 219 nm 328° / 326° COGHLAN ISLAND NDB
O PAJN APT - 0 ft / 0 m 58.35496˚ -134.57628˚ 3 nm 223 nm 94° / 94° Juneau Intl

Altitude Profile

Advertisement - Login to hide

Weather


0- 5 10 15 20 25 30 35+ Temperature / ° C

Clouds and Precipitation
Forecast for 2017-12-12 06:00 UTC. Updated an hour ago

Ground ~20,000 ft ~40,000 ft Winds

CZST

Details ICAO CZST
Name STEWART
Region Canada
Timezone America/Vancouver (UTC-8.0)
Stats Elevation 24 ft / 7 m (AMSL)
Location 55.935417° -129.984029°
Runways 1
Magnetic Variation 18.688° E

METAR

CZST 120100Z 05003KT 350V060 1/8SM FZFG SKC M00/M00 A3011 RMK FG7 LAST STFD OBS/NEXT 121500Z/ SLP198

Decode

TAF

Not found

Departure Runways

ID Width Length Bearing (true) Bearing (mag) Surface Threshold Offset Overrun Length
18 75 ft / 23 m 3,873 ft / 1,180 m 194.43° 175.74° Asphalt 0 ft / 0 m 0 ft / 0 m
36 75 ft / 23 m 3,873 ft / 1,180 m 14.42° 355.73° Asphalt 0 ft / 0 m 0 ft / 0 m

PAJN

Details ICAO PAJN (JNU)
Name Juneau Intl
Region USA (Alaska)
Timezone America/Juneau (UTC-9.0)
Stats Elevation 21 ft / 6 m (AMSL)
Location 58.354964° -134.576278°
Runways 1
Magnetic Variation 19.150° E

METAR

PAJN 120153Z 11013KT 7SM -RA FEW002 BKN030 OVC037 07/06 A2996

Decode

TAF

TAF PAJN 112326Z 1200/1224 11010KT 6SM -RA BR FEW015 BKN035 OVC050 FM120600 10007KT 4SM -RA BR SCT015 BKN040 OVC060 FM122000 10007KT P6SM VCSH SCT015 BKN040 OVC060

Decode

Destination Runways

ID Width Length Bearing (true) Bearing (mag) Surface Threshold Offset Overrun Length
08 150 ft / 46 m 8,430 ft / 2,570 m 104.87° 85.72° Asphalt 0 ft / 0 m 450 ft / 137 m
26 150 ft / 46 m 8,430 ft / 2,570 m 284.90° 265.75° Asphalt 0 ft / 0 m 225 ft / 69 m

Approach Navaids

Runway Type Ident Frequency Range Bearing (true) Bearing (mag) Slope Elevation
08 Localiser IJDL 109.90 MHz 18 nm / 33 km 84.92° 65.77° - 21 ft / 6 m (AMSL)
08 DME IJDL 109.90 MHz 18 nm / 33 km - - - 175 ft / 53 m (AMSL)

Popular Alternatives